sensor_id;sensor_type;location;lat;lon;timestamp;P1;durP1;ratioP1;P2;durP2;ratioP2
58101;SDS011;52034;51.926;6.320;2023-07-29T00:00:07;7.60;;;6.90;;
58101;SDS011;52034;51.926;6.320;2023-07-29T00:01:12;6.80;;;6.18;;
58101;SDS011;52034;51.926;6.320;2023-07-29T00:02:13;6.63;;;6.00;;
58101;SDS011;52034;51.926;6.320;2023-07-29T00:03:13;6.20;;;5.70;;
58101;SDS011;52034;51.926;6.320;2023-07-29T00:04:13;7.23;;;6.50;;
58101;SDS011;52034;51.926;6.320;2023-07-29T00:05:14;8.03;;;7.23;;
58101;SDS011;52034;51.926;6.320;2023-07-29T00:06:14;6.73;;;6.13;;
58101;SDS011;52034;51.926;6.320;2023-07-29T00:07:14;8.67;;;6.50;;
58101;SDS011;52034;51.926;6.320;2023-07-29T00:08:15;8.10;;;7.20;;
58101;SDS011;52034;51.926;6.320;2023-07-29T00:09:15;6.83;;;6.23;;
58101;SDS011;52034;51.926;6.320;2023-07-29T00:10:16;8.60;;;6.17;;
58101;SDS011;52034;51.926;6.320;2023-07-29T00:11:16;7.40;;;6.67;;
58101;SDS011;52034;51.926;6.320;2023-07-29T00:12:16;7.50;;;6.50;;
58101;SDS011;52034;51.926;6.320;2023-07-29T00:13:17;7.80;;;7.00;;
58101;SDS011;52034;51.926;6.320;2023-07-29T00:14:17;7.23;;;6.63;;
58101;SDS011;52034;51.926;6.320;2023-07-29T00:15:17;8.00;;;7.13;;
58101;SDS011;52034;51.926;6.320;2023-07-29T00:16:18;7.73;;;7.00;;
58101;SDS011;52034;51.926;6.320;2023-07-29T00:17:22;7.47;;;6.72;;
58101;SDS011;52034;51.926;6.320;2023-07-29T00:18:22;7.70;;;6.93;;
58101;SDS011;52034;51.926;6.320;2023-07-29T00:19:23;7.57;;;6.85;;
58101;SDS011;52034;51.926;6.320;2023-07-29T00:20:24;8.90;;;6.63;;
58101;SDS011;52034;51.926;6.320;2023-07-29T00:21:24;8.07;;;7.37;;
58101;SDS011;52034;51.926;6.320;2023-07-29T00:22:24;8.57;;;7.03;;
58101;SDS011;52034;51.926;6.320;2023-07-29T00:23:25;7.90;;;7.10;;
58101;SDS011;52034;51.926;6.320;2023-07-29T00:24:25;7.57;;;6.77;;
58101;SDS011;52034;51.926;6.320;2023-07-29T00:25:25;8.07;;;7.27;;
58101;SDS011;52034;51.926;6.320;2023-07-29T00:26:26;8.80;;;8.00;;
58101;SDS011;52034;51.926;6.320;2023-07-29T00:27:29;7.97;;;7.28;;
58101;SDS011;52034;51.926;6.320;2023-07-29T00:28:29;9.83;;;7.07;;
58101;SDS011;52034;51.926;6.320;2023-07-29T00:29:29;9.67;;;7.60;;
58101;SDS011;52034;51.926;6.320;2023-07-29T00:30:30;8.13;;;6.80;;
58101;SDS011;52034;51.926;6.320;2023-07-29T00:31:30;7.93;;;7.13;;
58101;SDS011;52034;51.926;6.320;2023-07-29T00:32:31;9.27;;;7.18;;
58101;SDS011;52034;51.926;6.320;2023-07-29T00:33:31;7.67;;;6.97;;
58101;SDS011;52034;51.926;6.320;2023-07-29T00:34:33;8.95;;;6.95;;
58101;SDS011;52034;51.926;6.320;2023-07-29T00:35:34;7.03;;;6.43;;
58101;SDS011;52034;51.926;6.320;2023-07-29T00:36:35;8.43;;;7.15;;
58101;SDS011;52034;51.926;6.320;2023-07-29T00:37:36;9.17;;;6.40;;
58101;SDS011;52034;51.926;6.320;2023-07-29T00:38:38;10.00;;;6.75;;
58101;SDS011;52034;51.926;6.320;2023-07-29T00:39:38;8.80;;;7.03;;
58101;SDS011;52034;51.926;6.320;2023-07-29T00:40:39;8.77;;;6.97;;
58101;SDS011;52034;51.926;6.320;2023-07-29T00:41:39;7.60;;;6.90;;
58101;SDS011;52034;51.926;6.320;2023-07-29T00:42:40;6.97;;;6.27;;
58101;SDS011;52034;51.926;6.320;2023-07-29T00:43:44;7.75;;;6.18;;
58101;SDS011;52034;51.926;6.320;2023-07-29T00:44:44;6.87;;;5.87;;
58101;SDS011;52034;51.926;6.320;2023-07-29T00:45:44;9.37;;;6.80;;
58101;SDS011;52034;51.926;6.320;2023-07-29T00:46:45;7.97;;;6.33;;
58101;SDS011;52034;51.926;6.320;2023-07-29T00:47:46;8.13;;;6.60;;
58101;SDS011;52034;51.926;6.320;2023-07-29T00:48:47;8.02;;;6.03;;
58101;SDS011;52034;51.926;6.320;2023-07-29T00:49:48;10.10;;;6.50;;
58101;SDS011;52034;51.926;6.320;2023-07-29T00:50:49;6.47;;;5.88;;
58101;SDS011;52034;51.926;6.320;2023-07-29T00:51:50;6.30;;;5.60;;
58101;SDS011;52034;51.926;6.320;2023-07-29T00:52:50;6.80;;;6.20;;
58101;SDS011;52034;51.926;6.320;2023-07-29T00:53:51;6.20;;;5.60;;
58101;SDS011;52034;51.926;6.320;2023-07-29T00:54:51;8.43;;;6.17;;
58101;SDS011;52034;51.926;6.320;2023-07-29T00:55:53;7.68;;;6.85;;
58101;SDS011;52034;51.926;6.320;2023-07-29T00:56:54;9.20;;;7.33;;
58101;SDS011;52034;51.926;6.320;2023-07-29T00:57:54;7.47;;;6.73;;
58101;SDS011;52034;51.926;6.320;2023-07-29T00:58:55;6.17;;;5.50;;
58101;SDS011;52034;51.926;6.320;2023-07-29T00:59:59;8.50;;;7.70;;
58101;SDS011;52034;51.926;6.320;2023-07-29T01:01:00;6.90;;;6.07;;
58101;SDS011;52034;51.926;6.320;2023-07-29T01:02:00;10.73;;;7.67;;
58101;SDS011;52034;51.926;6.320;2023-07-29T01:03:01;8.10;;;7.30;;
58101;SDS011;52034;51.926;6.320;2023-07-29T01:04:01;8.10;;;7.40;;
58101;SDS011;52034;51.926;6.320;2023-07-29T01:05:02;8.52;;;7.70;;
58101;SDS011;52034;51.926;6.320;2023-07-29T01:06:09;10.27;;;8.20;;
58101;SDS011;52034;51.926;6.320;2023-07-29T01:09:09;8.60;;;5.78;;
58101;SDS011;52034;51.926;6.320;2023-07-29T01:09:55;7.40;;;5.88;;
58101;SDS011;52034;51.926;6.320;2023-07-29T01:11:12;7.57;;;6.72;;
58101;SDS011;52034;51.926;6.320;2023-07-29T01:13:50;8.85;;;5.57;;
58101;SDS011;52034;51.926;6.320;2023-07-29T01:15:16;10.55;;;5.97;;
58101;SDS011;52034;51.926;6.320;2023-07-29T01:16:24;6.28;;;5.60;;
58101;SDS011;52034;51.926;6.320;2023-07-29T01:17:32;7.45;;;6.75;;
58101;SDS011;52034;51.926;6.320;2023-07-29T01:18:36;8.48;;;7.63;;
58101;SDS011;52034;51.926;6.320;2023-07-29T01:20:48;10.30;;;9.30;;
58101;SDS011;52034;51.926;6.320;2023-07-29T01:21:51;9.48;;;8.60;;
58101;SDS011;52034;51.926;6.320;2023-07-29T01:22:51;10.57;;;8.50;;
58101;SDS011;52034;51.926;6.320;2023-07-29T01:23:52;10.43;;;8.97;;
58101;SDS011;52034;51.926;6.320;2023-07-29T01:24:53;8.52;;;7.72;;
58101;SDS011;52034;51.926;6.320;2023-07-29T01:25:53;9.27;;;7.67;;
58101;SDS011;52034;51.926;6.320;2023-07-29T01:26:54;10.90;;;9.80;;
58101;SDS011;52034;51.926;6.320;2023-07-29T01:27:55;9.33;;;8.33;;
58101;SDS011;52034;51.926;6.320;2023-07-29T01:28:56;9.75;;;8.38;;
58101;SDS011;52034;51.926;6.320;2023-07-29T01:29:58;8.55;;;7.70;;
58101;SDS011;52034;51.926;6.320;2023-07-29T01:32:10;10.27;;;8.90;;
58101;SDS011;52034;51.926;6.320;2023-07-29T01:33:18;10.88;;;9.68;;
58101;SDS011;52034;51.926;6.320;2023-07-29T01:34:29;9.77;;;8.70;;
58101;SDS011;52034;51.926;6.320;2023-07-29T01:36:49;7.55;;;6.85;;
58101;SDS011;52034;51.926;6.320;2023-07-29T01:37:53;7.38;;;6.65;;
58101;SDS011;52034;51.926;6.320;2023-07-29T01:38:56;7.70;;;6.68;;
58101;SDS011;52034;51.926;6.320;2023-07-29T01:39:58;8.10;;;6.38;;
58101;SDS011;52034;51.926;6.320;2023-07-29T01:41:03;9.10;;;7.20;;
58101;SDS011;52034;51.926;6.320;2023-07-29T01:42:06;10.18;;;7.28;;
58101;SDS011;52034;51.926;6.320;2023-07-29T01:43:07;8.50;;;7.53;;
58101;SDS011;52034;51.926;6.320;2023-07-29T01:44:08;7.97;;;7.18;;
58101;SDS011;52034;51.926;6.320;2023-07-29T01:45:10;10.50;;;7.85;;
58101;SDS011;52034;51.926;6.320;2023-07-29T01:46:11;9.83;;;7.40;;
58101;SDS011;52034;51.926;6.320;2023-07-29T01:47:14;9.70;;;7.88;;
58101;SDS011;52034;51.926;6.320;2023-07-29T01:48:15;7.87;;;7.10;;
58101;SDS011;52034;51.926;6.320;2023-07-29T01:49:15;7.97;;;7.20;;
58101;SDS011;52034;51.926;6.320;2023-07-29T01:50:15;7.63;;;6.90;;
58101;SDS011;52034;51.926;6.320;2023-07-29T01:51:16;8.77;;;7.00;;
58101;SDS011;52034;51.926;6.320;2023-07-29T01:52:16;9.00;;;6.97;;
58101;SDS011;52034;51.926;6.320;2023-07-29T01:53:17;7.63;;;6.47;;
58101;SDS011;52034;51.926;6.320;2023-07-29T01:54:17;7.97;;;7.27;;
58101;SDS011;52034;51.926;6.320;2023-07-29T01:55:17;7.33;;;6.63;;
58101;SDS011;52034;51.926;6.320;2023-07-29T01:56:18;6.70;;;6.10;;
58101;SDS011;52034;51.926;6.320;2023-07-29T01:57:25;6.57;;;5.80;;
58101;SDS011;52034;51.926;6.320;2023-07-29T01:58:26;8.63;;;7.93;;
58101;SDS011;52034;51.926;6.320;2023-07-29T01:59:26;9.63;;;7.77;;
58101;SDS011;52034;51.926;6.320;2023-07-29T02:00:27;7.93;;;7.13;;
58101;SDS011;52034;51.926;6.320;2023-07-29T02:01:27;8.53;;;7.57;;
58101;SDS011;52034;51.926;6.320;2023-07-29T02:02:27;8.03;;;7.30;;
58101;SDS011;52034;51.926;6.320;2023-07-29T02:03:28;9.07;;;8.17;;
58101;SDS011;52034;51.926;6.320;2023-07-29T02:04:28;9.00;;;8.10;;
58101;SDS011;52034;51.926;6.320;2023-07-29T02:05:28;11.40;;;8.87;;
58101;SDS011;52034;51.926;6.320;2023-07-29T02:06:29;8.75;;;7.95;;
58101;SDS011;52034;51.926;6.320;2023-07-29T02:07:30;8.73;;;8.03;;
58101;SDS011;52034;51.926;6.320;2023-07-29T02:08:30;10.50;;;8.57;;
58101;SDS011;52034;51.926;6.320;2023-07-29T02:09:30;11.53;;;9.47;;
58101;SDS011;52034;51.926;6.320;2023-07-29T02:10:32;8.57;;;7.78;;
58101;SDS011;52034;51.926;6.320;2023-07-29T02:11:32;10.47;;;8.63;;
58101;SDS011;52034;51.926;6.320;2023-07-29T02:12:32;9.67;;;8.40;;
58101;SDS011;52034;51.926;6.320;2023-07-29T02:13:32;10.20;;;9.17;;
58101;SDS011;52034;51.926;6.320;2023-07-29T02:14:33;12.50;;;9.87;;
58101;SDS011;52034;51.926;6.320;2023-07-29T02:15:34;10.90;;;9.87;;
58101;SDS011;52034;51.926;6.320;2023-07-29T02:16:34;10.73;;;9.27;;
58101;SDS011;52034;51.926;6.320;2023-07-29T02:17:35;13.10;;;8.80;;
58101;SDS011;52034;51.926;6.320;2023-07-29T02:18:36;11.55;;;10.23;;
58101;SDS011;52034;51.926;6.320;2023-07-29T02:19:36;11.23;;;9.77;;
58101;SDS011;52034;51.926;6.320;2023-07-29T02:20:37;9.50;;;8.53;;
58101;SDS011;52034;51.926;6.320;2023-07-29T02:21:37;9.30;;;8.50;;
58101;SDS011;52034;51.926;6.320;2023-07-29T02:22:37;10.33;;;9.33;;
58101;SDS011;52034;51.926;6.320;2023-07-29T02:23:38;10.83;;;9.70;;
58101;SDS011;52034;51.926;6.320;2023-07-29T02:24:38;9.77;;;8.77;;
58101;SDS011;52034;51.926;6.320;2023-07-29T02:25:38;15.17;;;10.63;;
58101;SDS011;52034;51.926;6.320;2023-07-29T02:26:39;12.70;;;11.40;;
58101;SDS011;52034;51.926;6.320;2023-07-29T02:27:39;10.20;;;9.10;;
58101;SDS011;52034;51.926;6.320;2023-07-29T02:28:40;13.27;;;10.47;;
58101;SDS011;52034;51.926;6.320;2023-07-29T02:29:40;11.20;;;9.63;;
58101;SDS011;52034;51.926;6.320;2023-07-29T02:30:41;10.63;;;9.73;;
58101;SDS011;52034;51.926;6.320;2023-07-29T02:31:44;10.05;;;8.73;;
58101;SDS011;52034;51.926;6.320;2023-07-29T02:32:44;11.27;;;10.07;;
58101;SDS011;52034;51.926;6.320;2023-07-29T02:33:45;11.17;;;8.60;;
58101;SDS011;52034;51.926;6.320;2023-07-29T02:34:45;11.10;;;8.80;;
58101;SDS011;52034;51.926;6.320;2023-07-29T02:35:46;9.70;;;8.70;;
58101;SDS011;52034;51.926;6.320;2023-07-29T02:36:46;11.40;;;8.07;;
58101;SDS011;52034;51.926;6.320;2023-07-29T02:37:47;10.43;;;8.50;;
58101;SDS011;52034;51.926;6.320;2023-07-29T02:38:47;10.70;;;9.00;;
58101;SDS011;52034;51.926;6.320;2023-07-29T02:39:48;10.93;;;8.50;;
58101;SDS011;52034;51.926;6.320;2023-07-29T02:40:48;10.83;;;7.53;;
58101;SDS011;52034;51.926;6.320;2023-07-29T02:41:49;9.30;;;8.40;;
58101;SDS011;52034;51.926;6.320;2023-07-29T02:42:49;11.60;;;7.93;;
58101;SDS011;52034;51.926;6.320;2023-07-29T02:43:50;8.43;;;7.73;;
58101;SDS011;52034;51.926;6.320;2023-07-29T02:44:50;8.70;;;7.78;;
58101;SDS011;52034;51.926;6.320;2023-07-29T02:45:51;10.80;;;8.13;;
58101;SDS011;52034;51.926;6.320;2023-07-29T02:46:51;10.27;;;7.97;;
58101;SDS011;52034;51.926;6.320;2023-07-29T02:47:52;9.15;;;8.13;;
58101;SDS011;52034;51.926;6.320;2023-07-29T02:48:53;8.90;;;8.00;;
58101;SDS011;52034;51.926;6.320;2023-07-29T02:49:54;8.90;;;7.97;;
58101;SDS011;52034;51.926;6.320;2023-07-29T02:50:54;8.97;;;8.17;;
58101;SDS011;52034;51.926;6.320;2023-07-29T02:51:55;10.77;;;8.75;;
58101;SDS011;52034;51.926;6.320;2023-07-29T02:52:56;8.53;;;7.83;;
58101;SDS011;52034;51.926;6.320;2023-07-29T02:53:56;9.73;;;7.63;;
58101;SDS011;52034;51.926;6.320;2023-07-29T02:54:57;9.07;;;8.27;;
58101;SDS011;52034;51.926;6.320;2023-07-29T02:55:57;9.37;;;8.20;;
58101;SDS011;52034;51.926;6.320;2023-07-29T02:56:57;9.50;;;8.60;;
58101;SDS011;52034;51.926;6.320;2023-07-29T02:57:58;10.73;;;9.70;;
58101;SDS011;52034;51.926;6.320;2023-07-29T02:58:59;11.73;;;10.60;;
58101;SDS011;52034;51.926;6.320;2023-07-29T03:00:00;11.77;;;9.60;;
58101;SDS011;52034;51.926;6.320;2023-07-29T03:01:04;10.10;;;9.17;;
58101;SDS011;52034;51.926;6.320;2023-07-29T03:02:05;11.25;;;9.18;;
58101;SDS011;52034;51.926;6.320;2023-07-29T03:03:06;10.43;;;9.23;;
58101;SDS011;52034;51.926;6.320;2023-07-29T03:04:06;9.50;;;8.67;;
58101;SDS011;52034;51.926;6.320;2023-07-29T03:05:07;11.50;;;10.25;;
58101;SDS011;52034;51.926;6.320;2023-07-29T03:06:09;12.10;;;10.93;;
58101;SDS011;52034;51.926;6.320;2023-07-29T03:07:11;11.45;;;10.35;;
58101;SDS011;52034;51.926;6.320;2023-07-29T03:08:11;12.00;;;10.90;;
58101;SDS011;52034;51.926;6.320;2023-07-29T03:09:13;10.75;;;9.75;;
58101;SDS011;52034;51.926;6.320;2023-07-29T03:10:13;9.30;;;8.40;;
58101;SDS011;52034;51.926;6.320;2023-07-29T03:11:15;8.57;;;7.78;;
58101;SDS011;52034;51.926;6.320;2023-07-29T03:12:16;15.13;;;11.52;;
58101;SDS011;52034;51.926;6.320;2023-07-29T03:13:16;9.50;;;8.60;;
58101;SDS011;52034;51.926;6.320;2023-07-29T03:14:17;9.30;;;8.50;;
58101;SDS011;52034;51.926;6.320;2023-07-29T03:15:17;8.80;;;8.00;;
58101;SDS011;52034;51.926;6.320;2023-07-29T03:16:18;8.87;;;8.03;;
58101;SDS011;52034;51.926;6.320;2023-07-29T03:17:26;8.90;;;8.00;;
58101;SDS011;52034;51.926;6.320;2023-07-29T03:18:27;9.95;;;8.95;;
58101;SDS011;52034;51.926;6.320;2023-07-29T03:19:27;7.90;;;7.20;;
58101;SDS011;52034;51.926;6.320;2023-07-29T03:20:28;11.07;;;9.37;;
58101;SDS011;52034;51.926;6.320;2023-07-29T03:21:28;11.93;;;10.60;;
58101;SDS011;52034;51.926;6.320;2023-07-29T03:22:28;10.40;;;9.23;;
58101;SDS011;52034;51.926;6.320;2023-07-29T03:23:29;13.23;;;10.37;;
58101;SDS011;52034;51.926;6.320;2023-07-29T03:24:30;10.52;;;9.43;;
58101;SDS011;52034;51.926;6.320;2023-07-29T03:25:30;10.50;;;9.47;;
58101;SDS011;52034;51.926;6.320;2023-07-29T03:26:31;11.73;;;10.63;;
58101;SDS011;52034;51.926;6.320;2023-07-29T03:27:31;13.53;;;12.07;;
58101;SDS011;52034;51.926;6.320;2023-07-29T03:28:32;14.10;;;9.80;;
58101;SDS011;52034;51.926;6.320;2023-07-29T03:29:33;10.73;;;9.27;;
58101;SDS011;52034;51.926;6.320;2023-07-29T03:30:33;11.67;;;10.20;;
58101;SDS011;52034;51.926;6.320;2023-07-29T03:31:34;8.97;;;8.07;;
58101;SDS011;52034;51.926;6.320;2023-07-29T03:32:34;11.43;;;9.97;;
58101;SDS011;52034;51.926;6.320;2023-07-29T03:33:34;10.03;;;8.83;;
58101;SDS011;52034;51.926;6.320;2023-07-29T03:34:35;12.80;;;10.20;;
58101;SDS011;52034;51.926;6.320;2023-07-29T03:35:35;10.47;;;9.40;;
58101;SDS011;52034;51.926;6.320;2023-07-29T03:36:36;12.10;;;10.27;;
58101;SDS011;52034;51.926;6.320;2023-07-29T03:37:36;13.60;;;10.13;;
58101;SDS011;52034;51.926;6.320;2023-07-29T03:38:37;13.83;;;12.07;;
58101;SDS011;52034;51.926;6.320;2023-07-29T03:39:40;12.38;;;10.45;;
58101;SDS011;52034;51.926;6.320;2023-07-29T03:40:40;12.47;;;11.17;;
58101;SDS011;52034;51.926;6.320;2023-07-29T03:41:41;14.55;;;12.73;;
58101;SDS011;52034;51.926;6.320;2023-07-29T03:42:41;15.47;;;12.07;;
58101;SDS011;52034;51.926;6.320;2023-07-29T03:43:42;14.60;;;12.30;;
58101;SDS011;52034;51.926;6.320;2023-07-29T03:44:42;18.90;;;13.07;;
58101;SDS011;52034;51.926;6.320;2023-07-29T03:45:42;14.47;;;11.77;;
58101;SDS011;52034;51.926;6.320;2023-07-29T03:46:43;17.43;;;10.83;;
58101;SDS011;52034;51.926;6.320;2023-07-29T03:47:44;13.30;;;11.57;;
58101;SDS011;52034;51.926;6.320;2023-07-29T03:48:45;12.20;;;10.77;;
58101;SDS011;52034;51.926;6.320;2023-07-29T03:49:45;15.50;;;12.27;;
58101;SDS011;52034;51.926;6.320;2023-07-29T03:50:47;16.20;;;13.23;;
58101;SDS011;52034;51.926;6.320;2023-07-29T03:51:47;12.40;;;11.10;;
58101;SDS011;52034;51.926;6.320;2023-07-29T03:52:48;15.23;;;10.10;;
58101;SDS011;52034;51.926;6.320;2023-07-29T03:53:48;16.10;;;12.33;;
58101;SDS011;52034;51.926;6.320;2023-07-29T03:54:48;15.27;;;13.23;;
58101;SDS011;52034;51.926;6.320;2023-07-29T03:55:49;16.13;;;12.83;;
58101;SDS011;52034;51.926;6.320;2023-07-29T03:56:50;14.35;;;11.30;;
58101;SDS011;52034;51.926;6.320;2023-07-29T03:57:50;13.37;;;11.37;;
58101;SDS011;52034;51.926;6.320;2023-07-29T03:58:51;14.63;;;12.20;;
58101;SDS011;52034;51.926;6.320;2023-07-29T03:59:52;15.23;;;12.00;;
58101;SDS011;52034;51.926;6.320;2023-07-29T04:00:53;13.67;;;11.83;;
58101;SDS011;52034;51.926;6.320;2023-07-29T04:01:53;14.67;;;12.43;;
58101;SDS011;52034;51.926;6.320;2023-07-29T04:02:54;16.13;;;12.65;;
58101;SDS011;52034;51.926;6.320;2023-07-29T04:03:54;12.83;;;10.63;;
58101;SDS011;52034;51.926;6.320;2023-07-29T04:04:55;12.63;;;11.33;;
58101;SDS011;52034;51.926;6.320;2023-07-29T04:05:55;13.67;;;11.60;;
58101;SDS011;52034;51.926;6.320;2023-07-29T04:06:56;13.63;;;10.87;;
58101;SDS011;52034;51.926;6.320;2023-07-29T04:07:57;15.00;;;12.27;;
58101;SDS011;52034;51.926;6.320;2023-07-29T04:08:57;15.17;;;11.63;;
58101;SDS011;52034;51.926;6.320;2023-07-29T04:09:58;16.40;;;12.00;;
58101;SDS011;52034;51.926;6.320;2023-07-29T04:10:59;16.43;;;10.73;;
58101;SDS011;52034;51.926;6.320;2023-07-29T04:11:59;15.27;;;11.17;;
58101;SDS011;52034;51.926;6.320;2023-07-29T04:12:59;12.27;;;11.07;;
58101;SDS011;52034;51.926;6.320;2023-07-29T04:14:00;11.33;;;10.10;;
58101;SDS011;52034;51.926;6.320;2023-07-29T04:15:00;12.10;;;10.70;;
58101;SDS011;52034;51.926;6.320;2023-07-29T04:16:01;11.63;;;10.40;;
58101;SDS011;52034;51.926;6.320;2023-07-29T04:17:02;13.02;;;10.43;;
58101;SDS011;52034;51.926;6.320;2023-07-29T04:18:02;11.97;;;10.77;;
58101;SDS011;52034;51.926;6.320;2023-07-29T04:19:03;14.67;;;10.53;;
58101;SDS011;52034;51.926;6.320;2023-07-29T04:20:03;13.10;;;10.70;;
58101;SDS011;52034;51.926;6.320;2023-07-29T04:21:08;11.50;;;10.30;;
58101;SDS011;52034;51.926;6.320;2023-07-29T04:22:09;12.38;;;11.07;;
58101;SDS011;52034;51.926;6.320;2023-07-29T04:23:09;14.23;;;11.10;;
58101;SDS011;52034;51.926;6.320;2023-07-29T04:24:10;16.60;;;11.60;;
58101;SDS011;52034;51.926;6.320;2023-07-29T04:25:10;12.83;;;10.60;;
58101;SDS011;52034;51.926;6.320;2023-07-29T04:26:11;11.47;;;10.13;;
58101;SDS011;52034;51.926;6.320;2023-07-29T04:27:11;14.60;;;10.20;;
58101;SDS011;52034;51.926;6.320;2023-07-29T04:28:11;11.27;;;9.90;;
58101;SDS011;52034;51.926;6.320;2023-07-29T04:29:12;13.20;;;10.27;;
58101;SDS011;52034;51.926;6.320;2023-07-29T04:30:13;12.73;;;10.40;;
58101;SDS011;52034;51.926;6.320;2023-07-29T04:31:13;13.23;;;9.73;;
58101;SDS011;52034;51.926;6.320;2023-07-29T04:32:13;12.43;;;10.13;;
58101;SDS011;52034;51.926;6.320;2023-07-29T04:33:16;11.50;;;10.20;;
58101;SDS011;52034;51.926;6.320;2023-07-29T04:34:17;13.57;;;9.93;;
58101;SDS011;52034;51.926;6.320;2023-07-29T04:35:18;11.68;;;10.00;;
58101;SDS011;52034;51.926;6.320;2023-07-29T04:36:18;11.43;;;9.93;;
58101;SDS011;52034;51.926;6.320;2023-07-29T04:37:20;13.85;;;10.20;;
58101;SDS011;52034;51.926;6.320;2023-07-29T04:38:20;15.87;;;10.80;;
58101;SDS011;52034;51.926;6.320;2023-07-29T04:39:20;10.40;;;9.30;;
58101;SDS011;52034;51.926;6.320;2023-07-29T04:40:21;11.70;;;9.57;;
58101;SDS011;52034;51.926;6.320;2023-07-29T04:42:25;10.63;;;9.40;;
58101;SDS011;52034;51.926;6.320;2023-07-29T04:43:26;10.87;;;9.60;;
58101;SDS011;52034;51.926;6.320;2023-07-29T04:44:27;14.65;;;9.32;;
58101;SDS011;52034;51.926;6.320;2023-07-29T04:45:30;13.50;;;10.03;;
58101;SDS011;52034;51.926;6.320;2023-07-29T04:46:31;10.65;;;9.55;;
58101;SDS011;52034;51.926;6.320;2023-07-29T04:47:31;11.03;;;9.40;;
58101;SDS011;52034;51.926;6.320;2023-07-29T04:48:31;13.47;;;9.60;;
58101;SDS011;52034;51.926;6.320;2023-07-29T04:49:32;11.43;;;9.00;;
58101;SDS011;52034;51.926;6.320;2023-07-29T04:50:32;11.60;;;9.73;;
58101;SDS011;52034;51.926;6.320;2023-07-29T04:51:33;11.07;;;9.63;;
58101;SDS011;52034;51.926;6.320;2023-07-29T04:52:33;11.77;;;9.13;;
58101;SDS011;52034;51.926;6.320;2023-07-29T04:53:33;13.40;;;8.57;;
58101;SDS011;52034;51.926;6.320;2023-07-29T04:54:36;12.80;;;9.00;;
58101;SDS011;52034;51.926;6.320;2023-07-29T04:55:36;9.83;;;8.57;;
58101;SDS011;52034;51.926;6.320;2023-07-29T04:56:37;18.17;;;9.23;;
58101;SDS011;52034;51.926;6.320;2023-07-29T04:57:37;12.23;;;8.70;;
58101;SDS011;52034;51.926;6.320;2023-07-29T04:58:37;12.90;;;8.73;;
58101;SDS011;52034;51.926;6.320;2023-07-29T04:59:38;12.50;;;8.37;;
58101;SDS011;52034;51.926;6.320;2023-07-29T05:00:38;10.50;;;8.30;;
58101;SDS011;52034;51.926;6.320;2023-07-29T05:01:38;12.13;;;8.30;;
58101;SDS011;52034;51.926;6.320;2023-07-29T05:02:39;10.87;;;8.43;;
58101;SDS011;52034;51.926;6.320;2023-07-29T05:03:39;9.23;;;7.97;;
58101;SDS011;52034;51.926;6.320;2023-07-29T05:04:40;10.20;;;8.20;;
58101;SDS011;52034;51.926;6.320;2023-07-29T05:05:41;8.87;;;7.80;;
58101;SDS011;52034;51.926;6.320;2023-07-29T05:06:41;10.80;;;7.83;;
58101;SDS011;52034;51.926;6.320;2023-07-29T05:07:42;9.47;;;7.90;;
58101;SDS011;52034;51.926;6.320;2023-07-29T05:08:42;11.30;;;8.17;;
58101;SDS011;52034;51.926;6.320;2023-07-29T05:09:42;8.57;;;7.70;;
58101;SDS011;52034;51.926;6.320;2023-07-29T05:10:43;9.23;;;7.93;;
58101;SDS011;52034;51.926;6.320;2023-07-29T05:11:43;10.60;;;8.57;;
58101;SDS011;52034;51.926;6.320;2023-07-29T05:12:45;11.77;;;8.77;;
58101;SDS011;52034;51.926;6.320;2023-07-29T05:13:45;10.03;;;8.37;;
58101;SDS011;52034;51.926;6.320;2023-07-29T05:14:46;9.40;;;8.10;;
58101;SDS011;52034;51.926;6.320;2023-07-29T05:15:47;9.53;;;8.53;;
58101;SDS011;52034;51.926;6.320;2023-07-29T05:16:48;11.85;;;9.43;;
58101;SDS011;52034;51.926;6.320;2023-07-29T05:17:49;13.82;;;9.00;;
58101;SDS011;52034;51.926;6.320;2023-07-29T05:18:49;11.63;;;8.97;;
58101;SDS011;52034;51.926;6.320;2023-07-29T05:19:50;13.93;;;9.30;;
58101;SDS011;52034;51.926;6.320;2023-07-29T05:20:50;11.20;;;8.60;;
58101;SDS011;52034;51.926;6.320;2023-07-29T05:21:50;10.77;;;8.73;;
58101;SDS011;52034;51.926;6.320;2023-07-29T05:22:51;12.90;;;8.43;;
58101;SDS011;52034;51.926;6.320;2023-07-29T05:23:51;11.40;;;8.20;;
58101;SDS011;52034;51.926;6.320;2023-07-29T05:24:51;9.93;;;8.07;;
58101;SDS011;52034;51.926;6.320;2023-07-29T05:25:52;12.53;;;8.40;;
58101;SDS011;52034;51.926;6.320;2023-07-29T05:26:52;8.97;;;8.07;;
58101;SDS011;52034;51.926;6.320;2023-07-29T05:27:52;8.23;;;7.13;;
58101;SDS011;52034;51.926;6.320;2023-07-29T05:28:53;9.33;;;7.77;;
58101;SDS011;52034;51.926;6.320;2023-07-29T05:29:53;14.23;;;7.03;;
58101;SDS011;52034;51.926;6.320;2023-07-29T05:30:53;7.90;;;7.07;;
58101;SDS011;52034;51.926;6.320;2023-07-29T05:31:54;8.10;;;7.13;;
58101;SDS011;52034;51.926;6.320;2023-07-29T05:32:54;9.10;;;7.53;;
58101;SDS011;52034;51.926;6.320;2023-07-29T05:33:54;8.73;;;6.87;;
58101;SDS011;52034;51.926;6.320;2023-07-29T05:34:55;9.87;;;6.83;;
58101;SDS011;52034;51.926;6.320;2023-07-29T05:35:57;7.30;;;6.53;;
58101;SDS011;52034;51.926;6.320;2023-07-29T05:36:57;7.27;;;6.53;;
58101;SDS011;52034;51.926;6.320;2023-07-29T05:37:57;7.00;;;5.90;;
58101;SDS011;52034;51.926;6.320;2023-07-29T05:38:58;6.57;;;5.97;;
58101;SDS011;52034;51.926;6.320;2023-07-29T05:39:58;8.17;;;6.23;;
58101;SDS011;52034;51.926;6.320;2023-07-29T05:40:59;7.20;;;5.70;;
58101;SDS011;52034;51.926;6.320;2023-07-29T05:42:01;9.32;;;6.22;;
58101;SDS011;52034;51.926;6.320;2023-07-29T05:43:02;5.85;;;5.05;;
58101;SDS011;52034;51.926;6.320;2023-07-29T05:44:03;8.90;;;5.97;;
58101;SDS011;52034;51.926;6.320;2023-07-29T05:45:05;6.10;;;5.40;;
58101;SDS011;52034;51.926;6.320;2023-07-29T05:46:06;7.32;;;6.05;;
58101;SDS011;52034;51.926;6.320;2023-07-29T05:47:06;9.57;;;6.33;;
58101;SDS011;52034;51.926;6.320;2023-07-29T05:48:07;7.80;;;5.80;;
58101;SDS011;52034;51.926;6.320;2023-07-29T05:49:07;7.00;;;5.97;;
58101;SDS011;52034;51.926;6.320;2023-07-29T05:50:08;9.50;;;6.07;;
58101;SDS011;52034;51.926;6.320;2023-07-29T05:51:08;7.07;;;5.72;;
58101;SDS011;52034;51.926;6.320;2023-07-29T05:52:09;7.70;;;6.22;;
58101;SDS011;52034;51.926;6.320;2023-07-29T05:53:10;6.47;;;5.87;;
58101;SDS011;52034;51.926;6.320;2023-07-29T05:54:10;7.03;;;6.27;;
58101;SDS011;52034;51.926;6.320;2023-07-29T05:55:11;9.53;;;6.77;;
58101;SDS011;52034;51.926;6.320;2023-07-29T05:56:11;6.93;;;6.10;;
58101;SDS011;52034;51.926;6.320;2023-07-29T05:57:12;7.00;;;6.27;;
58101;SDS011;52034;51.926;6.320;2023-07-29T05:58:12;9.43;;;6.33;;
58101;SDS011;52034;51.926;6.320;2023-07-29T05:59:13;7.77;;;6.97;;
58101;SDS011;52034;51.926;6.320;2023-07-29T06:00:13;8.20;;;6.40;;
58101;SDS011;52034;51.926;6.320;2023-07-29T06:01:13;7.67;;;6.77;;
58101;SDS011;52034;51.926;6.320;2023-07-29T06:02:15;10.63;;;7.72;;
58101;SDS011;52034;51.926;6.320;2023-07-29T06:03:15;7.70;;;6.90;;
58101;SDS011;52034;51.926;6.320;2023-07-29T06:04:16;9.70;;;6.93;;
58101;SDS011;52034;51.926;6.320;2023-07-29T06:05:16;9.33;;;7.50;;
58101;SDS011;52034;51.926;6.320;2023-07-29T06:06:16;8.00;;;7.20;;
58101;SDS011;52034;51.926;6.320;2023-07-29T06:07:17;9.03;;;7.23;;
58101;SDS011;52034;51.926;6.320;2023-07-29T06:08:17;9.73;;;7.20;;
58101;SDS011;52034;51.926;6.320;2023-07-29T06:09:17;10.13;;;7.30;;
58101;SDS011;52034;51.926;6.320;2023-07-29T06:10:18;9.53;;;7.43;;
58101;SDS011;52034;51.926;6.320;2023-07-29T06:11:18;8.57;;;7.37;;